createdAt,value
2019-05-12T00:00:43.674Z,0.00
2019-05-12T00:01:43.697Z,0.00
2019-05-12T00:02:43.703Z,0.00
2019-05-12T00:03:43.745Z,0.00
2019-05-12T00:04:43.740Z,0.00
2019-05-12T00:05:43.747Z,0.00
2019-05-12T00:06:43.771Z,0.00
2019-05-12T00:07:43.781Z,0.00
2019-05-12T00:08:43.793Z,0.00
2019-05-12T00:09:43.806Z,0.00
2019-05-12T00:10:43.823Z,0.00
2019-05-12T00:11:43.844Z,0.00
2019-05-12T00:12:43.853Z,0.00
2019-05-12T00:13:43.871Z,0.00
2019-05-12T00:14:43.885Z,0.00
2019-05-12T00:15:43.899Z,0.00
2019-05-12T00:16:43.918Z,0.00
2019-05-12T00:17:44.069Z,0.00
2019-05-12T00:18:43.945Z,0.00
2019-05-12T00:19:43.965Z,0.00
2019-05-12T00:20:43.976Z,0.00
2019-05-12T00:21:43.990Z,0.00
2019-05-12T00:22:44.006Z,0.00
2019-05-12T00:23:44.027Z,0.00
2019-05-12T00:24:44.043Z,0.00
2019-05-12T00:25:44.050Z,0.00
2019-05-12T00:26:44.066Z,0.00
2019-05-12T00:27:44.081Z,0.00
2019-05-12T00:28:44.097Z,0.00
2019-05-12T00:29:44.112Z,0.00
2019-05-12T00:30:44.127Z,0.00
2019-05-12T00:31:44.147Z,0.00
2019-05-12T00:32:44.162Z,0.00
2019-05-12T00:33:44.169Z,0.00
2019-05-12T00:34:44.188Z,0.00
2019-05-12T00:35:44.202Z,0.00
2019-05-12T00:36:44.220Z,0.00
2019-05-12T00:37:44.242Z,0.00
2019-05-12T00:38:44.263Z,0.00
2019-05-12T00:39:44.298Z,0.00
2019-05-12T00:40:44.291Z,0.00
2019-05-12T00:41:44.666Z,0.00
2019-05-12T00:42:44.309Z,0.00
2019-05-12T00:43:44.444Z,0.00
2019-05-12T00:44:44.337Z,0.00
2019-05-12T00:45:44.350Z,0.00
2019-05-12T00:46:44.367Z,0.00
2019-05-12T00:47:44.380Z,0.00
2019-05-12T00:48:44.401Z,0.00
2019-05-12T00:49:44.410Z,0.00
2019-05-12T00:50:44.424Z,0.00
2019-05-12T00:51:44.449Z,0.00
2019-05-12T00:52:44.456Z,0.00
2019-05-12T00:53:44.470Z,0.00
2019-05-12T00:54:44.485Z,0.00
2019-05-12T00:55:44.502Z,0.00
2019-05-12T00:56:44.519Z,0.00
2019-05-12T00:57:44.530Z,0.00
2019-05-12T00:58:44.541Z,0.00
2019-05-12T00:59:44.560Z,0.00
2019-05-12T01:00:44.579Z,0.00
2019-05-12T01:01:44.590Z,0.00
2019-05-12T01:02:44.602Z,0.00
2019-05-12T01:03:44.614Z,0.00
2019-05-12T01:04:44.636Z,0.00
2019-05-12T01:05:44.655Z,0.00
2019-05-12T01:06:44.660Z,0.00
2019-05-12T01:07:44.674Z,0.00
2019-05-12T01:08:44.703Z,0.00
2019-05-12T01:09:44.710Z,0.00
2019-05-12T01:10:44.725Z,0.00
2019-05-12T01:11:44.745Z,0.00
2019-05-12T01:12:44.763Z,0.00
2019-05-12T01:13:44.769Z,0.00
2019-05-12T01:14:44.779Z,0.00
2019-05-12T01:15:44.792Z,0.00
2019-05-12T01:16:44.809Z,0.00
2019-05-12T01:17:44.831Z,0.00
2019-05-12T01:18:44.879Z,0.00
2019-05-12T01:19:44.849Z,0.00
2019-05-12T01:20:44.871Z,0.00
2019-05-12T01:21:44.881Z,0.00
2019-05-12T01:22:44.893Z,0.00
2019-05-12T01:23:56.395Z,0.00
2019-05-12T01:24:44.927Z,0.00
2019-05-12T01:25:44.937Z,0.00
2019-05-12T01:26:44.952Z,0.00
2019-05-12T01:27:44.965Z,0.00
2019-05-12T01:28:44.985Z,0.00
2019-05-12T01:29:44.995Z,0.00
2019-05-12T01:30:45.015Z,0.00
2019-05-12T01:31:45.023Z,0.00
2019-05-12T01:32:45.050Z,0.00
2019-05-12T01:33:45.056Z,0.00
2019-05-12T01:34:45.067Z,0.00
2019-05-12T01:35:45.083Z,0.00
2019-05-12T01:36:45.099Z,0.00
2019-05-12T01:37:45.112Z,0.00
2019-05-12T01:38:45.133Z,0.00
2019-05-12T01:39:45.145Z,0.00
2019-05-12T01:40:45.154Z,0.00
2019-05-12T01:41:45.169Z,0.00
2019-05-12T01:42:45.182Z,0.00
2019-05-12T01:43:45.211Z,0.00
2019-05-12T01:44:45.215Z,0.00
2019-05-12T01:45:45.241Z,0.00
2019-05-12T01:46:45.248Z,0.00
2019-05-12T01:47:45.259Z,0.00
2019-05-12T01:48:45.272Z,0.00
2019-05-12T01:49:45.287Z,0.00
2019-05-12T01:50:47.448Z,0.00
2019-05-12T01:51:47.540Z,0.00
2019-05-12T01:52:47.701Z,0.00
2019-05-12T01:53:45.347Z,0.00
2019-05-12T01:54:45.369Z,0.00
2019-05-12T01:55:45.376Z,0.00
2019-05-12T01:56:45.388Z,0.00
2019-05-12T01:57:45.410Z,0.00
2019-05-12T01:58:45.418Z,0.00
2019-05-12T01:59:45.436Z,0.00
2019-05-12T02:00:45.445Z,0.00
2019-05-12T02:01:45.470Z,0.00
2019-05-12T02:02:47.895Z,0.00
2019-05-12T02:03:45.491Z,0.00
2019-05-12T02:04:45.512Z,0.00
2019-05-12T02:05:45.526Z,0.00
2019-05-12T02:06:45.537Z,0.00
2019-05-12T02:07:47.816Z,0.00
2019-05-12T02:08:47.654Z,0.00
2019-05-12T02:09:48.007Z,0.00
2019-05-12T02:10:47.978Z,0.00
2019-05-12T02:11:45.613Z,0.00
2019-05-12T02:12:45.628Z,0.00
2019-05-12T02:13:45.638Z,0.00
2019-05-12T02:14:45.650Z,0.00
2019-05-12T02:15:45.667Z,0.00
2019-05-12T02:16:47.601Z,0.00
2019-05-12T02:17:47.972Z,0.00
2019-05-12T02:18:45.711Z,0.00
2019-05-12T02:19:47.991Z,0.00
2019-05-12T02:20:45.739Z,0.00
2019-05-12T02:21:45.753Z,0.00
2019-05-12T02:22:47.781Z,0.00
2019-05-12T02:23:47.668Z,0.00
2019-05-12T02:24:47.770Z,0.00
2019-05-12T02:25:48.136Z,0.00
2019-05-12T02:26:45.830Z,0.00
2019-05-12T02:27:47.623Z,0.00
2019-05-12T02:28:47.905Z,0.00
2019-05-12T02:29:48.038Z,0.00
2019-05-12T02:30:45.887Z,0.00
2019-05-12T02:31:45.923Z,0.00
2019-05-12T02:32:52.478Z,0.00
2019-05-12T02:33:45.936Z,0.00
2019-05-12T02:34:45.951Z,0.00
2019-05-12T02:35:45.963Z,0.00
2019-05-12T02:36:45.994Z,0.00
2019-05-12T02:37:45.994Z,0.00
2019-05-12T02:38:46.006Z,0.00
2019-05-12T02:39:46.020Z,0.00
2019-05-12T02:40:46.038Z,0.00
2019-05-12T02:41:46.057Z,0.00
2019-05-12T02:42:46.672Z,0.00
2019-05-12T02:43:46.176Z,0.00
2019-05-12T02:44:46.107Z,0.00
2019-05-12T02:45:46.113Z,0.00
2019-05-12T02:46:46.132Z,0.00
2019-05-12T02:47:46.140Z,0.00
2019-05-12T02:48:46.162Z,0.00
2019-05-12T02:49:46.185Z,0.00
2019-05-12T02:50:46.196Z,0.00
2019-05-12T02:51:46.203Z,0.00
2019-05-12T02:52:46.222Z,0.00
2019-05-12T02:53:47.279Z,0.00
2019-05-12T02:54:55.279Z,0.00
2019-05-12T02:55:46.270Z,0.00
2019-05-12T02:56:46.285Z,0.00
2019-05-12T02:57:46.295Z,0.00
2019-05-12T02:58:46.304Z,0.00
2019-05-12T02:59:46.325Z,0.00
2019-05-12T03:00:46.342Z,0.00
2019-05-12T03:01:46.357Z,0.00
2019-05-12T03:02:46.369Z,0.00
2019-05-12T03:03:46.383Z,0.00
2019-05-12T03:04:46.398Z,0.00
2019-05-12T03:05:46.418Z,0.00
2019-05-12T03:06:46.428Z,0.00
2019-05-12T03:07:46.447Z,0.00
2019-05-12T03:08:46.466Z,0.00
2019-05-12T03:09:46.474Z,0.00
2019-05-12T03:10:46.490Z,0.00
2019-05-12T03:11:46.506Z,0.00
2019-05-12T03:12:46.526Z,0.00
2019-05-12T03:13:46.535Z,0.00
2019-05-12T03:14:46.552Z,0.00
2019-05-12T03:15:46.563Z,0.00
2019-05-12T03:16:46.581Z,0.00
2019-05-12T03:17:46.594Z,0.00
2019-05-12T03:18:46.613Z,0.00
2019-05-12T03:19:46.631Z,0.00
2019-05-12T03:20:46.652Z,0.00
2019-05-12T03:21:46.657Z,0.00
2019-05-12T03:22:46.674Z,0.00
2019-05-12T03:23:46.688Z,0.00
2019-05-12T03:25:05.942Z,0.00
2019-05-12T03:25:46.725Z,0.00
2019-05-12T03:26:46.734Z,0.00
2019-05-12T03:27:46.759Z,0.00
2019-05-12T03:28:46.761Z,0.00
2019-05-12T03:29:46.772Z,0.00
2019-05-12T03:30:48.847Z,0.00
2019-05-12T03:31:48.796Z,0.00
2019-05-12T03:32:47.839Z,5.63
2019-05-12T03:33:52.915Z,5.63
2019-05-12T03:34:47.784Z,5.63
2019-05-12T03:35:53.035Z,5.63
2019-05-12T03:36:51.324Z,5.63
2019-05-12T03:37:47.089Z,5.63
2019-05-12T03:38:46.983Z,5.63
2019-05-12T03:39:46.956Z,11.25
2019-05-12T03:40:46.948Z,11.25
2019-05-12T03:41:46.955Z,11.25
2019-05-12T03:42:46.973Z,11.25
2019-05-12T03:43:47.009Z,11.25
2019-05-12T03:44:47.004Z,16.88
2019-05-12T03:45:47.021Z,16.88
2019-05-12T03:46:47.037Z,22.50
2019-05-12T03:47:47.051Z,22.50
2019-05-12T03:48:47.065Z,22.50
2019-05-12T03:49:47.136Z,28.13
2019-05-12T03:50:47.100Z,33.75
2019-05-12T03:51:47.107Z,33.75
2019-05-12T03:52:47.124Z,39.38
2019-05-12T03:53:47.182Z,45.00
2019-05-12T03:54:47.155Z,45.00
2019-05-12T03:55:47.479Z,50.63
2019-05-12T03:56:47.183Z,56.25
2019-05-12T03:57:47.202Z,61.88
2019-05-12T03:58:47.225Z,67.50
2019-05-12T03:59:47.233Z,67.50
2019-05-12T04:00:47.255Z,67.50
2019-05-12T04:01:47.263Z,73.13
2019-05-12T04:02:47.277Z,73.13
2019-05-12T04:03:47.293Z,78.75
2019-05-12T04:04:47.314Z,78.75
2019-05-12T04:05:47.323Z,78.75
2019-05-12T04:06:47.344Z,78.75
2019-05-12T04:07:47.354Z,84.38
2019-05-12T04:08:47.368Z,84.38
2019-05-12T04:09:47.384Z,95.63
2019-05-12T04:10:47.397Z,95.63
2019-05-12T04:11:47.417Z,106.88
2019-05-12T04:12:47.435Z,106.88
2019-05-12T04:13:47.444Z,101.25
2019-05-12T04:14:47.464Z,101.25
2019-05-12T04:15:47.479Z,101.25
2019-05-12T04:16:47.496Z,95.63
2019-05-12T04:17:47.510Z,90.00
2019-05-12T04:18:47.522Z,95.63
2019-05-12T04:19:47.536Z,112.50
2019-05-12T04:20:47.552Z,118.13
2019-05-12T04:21:47.574Z,129.38
2019-05-12T04:22:47.577Z,129.38
2019-05-12T04:23:47.599Z,129.38
2019-05-12T04:24:47.611Z,135.00
2019-05-12T04:25:52.887Z,140.63
2019-05-12T04:26:47.639Z,146.25
2019-05-12T04:27:47.659Z,140.63
2019-05-12T04:28:47.677Z,140.63
2019-05-12T04:29:47.688Z,135.00
2019-05-12T04:30:47.751Z,129.38
2019-05-12T04:31:47.722Z,123.75
2019-05-12T04:32:47.735Z,123.75
2019-05-12T04:33:47.755Z,118.13
2019-05-12T04:34:47.763Z,129.38
2019-05-12T04:35:47.786Z,135.00
2019-05-12T04:36:47.794Z,135.00
2019-05-12T04:37:47.810Z,140.63
2019-05-12T04:38:47.828Z,140.63
2019-05-12T04:39:47.875Z,140.63
2019-05-12T04:40:47.856Z,146.25
2019-05-12T04:41:47.894Z,157.50
2019-05-12T04:42:47.900Z,157.50
2019-05-12T04:43:47.909Z,174.38
2019-05-12T04:44:47.930Z,202.50
2019-05-12T04:45:47.953Z,219.38
2019-05-12T04:46:47.946Z,236.25
2019-05-12T04:47:47.962Z,247.50
2019-05-12T04:48:47.981Z,258.75
2019-05-12T04:49:47.993Z,275.63
2019-05-12T04:50:48.028Z,303.75
2019-05-12T04:51:48.030Z,281.25
2019-05-12T04:52:48.035Z,365.63
2019-05-12T04:53:48.066Z,365.63
2019-05-12T04:54:48.078Z,315.00
2019-05-12T04:56:06.274Z,742.50
2019-05-12T04:56:48.113Z,337.50
2019-05-12T04:57:48.120Z,281.25
2019-05-12T04:58:48.138Z,281.25
2019-05-12T04:59:48.149Z,292.50
2019-05-12T05:00:48.165Z,292.50
2019-05-12T05:01:48.181Z,427.50
2019-05-12T05:02:48.195Z,275.63
2019-05-12T05:03:48.218Z,270.00
2019-05-12T05:04:48.224Z,1006.88
2019-05-12T05:05:48.238Z,1260.00
2019-05-12T05:06:48.259Z,478.13
2019-05-12T05:07:48.275Z,298.13
2019-05-12T05:08:48.303Z,281.25
2019-05-12T05:09:48.305Z,444.38
2019-05-12T05:10:48.322Z,343.13
2019-05-12T05:11:48.344Z,354.38
2019-05-12T05:12:48.356Z,348.75
2019-05-12T05:13:48.369Z,343.13
2019-05-12T05:14:48.385Z,303.75
2019-05-12T05:15:48.403Z,326.25
2019-05-12T05:16:48.422Z,326.25
2019-05-12T05:17:48.435Z,303.75
2019-05-12T05:18:48.452Z,309.38
2019-05-12T05:19:48.464Z,326.25
2019-05-12T05:20:48.481Z,309.38
2019-05-12T05:21:48.501Z,326.25
2019-05-12T05:22:48.509Z,303.75
2019-05-12T05:23:48.528Z,286.88
2019-05-12T05:24:48.546Z,320.63
2019-05-12T05:25:48.566Z,1068.75
2019-05-12T05:26:48.580Z,1338.75
2019-05-12T05:27:48.595Z,421.88
2019-05-12T05:28:48.614Z,708.75
2019-05-12T05:29:48.631Z,1327.50
2019-05-12T05:30:48.643Z,523.13
2019-05-12T05:31:48.660Z,669.38
2019-05-12T05:32:48.670Z,495.00
2019-05-12T05:33:48.698Z,748.13
2019-05-12T05:34:53.689Z,444.38
2019-05-12T05:35:48.723Z,388.13
2019-05-12T05:36:51.092Z,478.13
2019-05-12T05:37:48.771Z,433.13
2019-05-12T05:38:51.172Z,376.88
2019-05-12T05:39:49.797Z,523.13
2019-05-12T05:40:48.821Z,483.75
2019-05-12T05:41:50.935Z,489.38
2019-05-12T05:42:48.846Z,787.50
2019-05-12T05:43:54.258Z,815.63
2019-05-12T05:44:48.872Z,781.88
2019-05-12T05:45:48.897Z,506.25
2019-05-12T05:46:50.298Z,478.13
2019-05-12T05:47:49.179Z,1552.50
2019-05-12T05:48:48.941Z,624.38
2019-05-12T05:49:48.958Z,523.13
2019-05-12T05:50:48.980Z,568.13
2019-05-12T05:51:54.339Z,832.50
2019-05-12T05:52:49.013Z,495.00
2019-05-12T05:53:50.178Z,866.25
2019-05-12T05:54:49.047Z,601.88
2019-05-12T05:55:50.409Z,545.63
2019-05-12T05:56:58.440Z,686.25
2019-05-12T05:57:49.097Z,635.63
2019-05-12T05:58:51.914Z,601.88
2019-05-12T05:59:49.133Z,1738.13
2019-05-12T06:00:54.816Z,2531.25
2019-05-12T06:01:51.949Z,680.63
2019-05-12T06:02:49.192Z,2317.50
2019-05-12T06:03:49.199Z,686.25
2019-05-12T06:04:49.898Z,708.75
2019-05-12T06:05:49.240Z,843.75
2019-05-12T06:06:52.796Z,720.00
2019-05-12T06:07:49.267Z,1614.38
2019-05-12T06:08:49.294Z,821.25
2019-05-12T06:09:49.313Z,950.63
2019-05-12T06:10:49.339Z,669.38
2019-05-12T06:11:49.344Z,2295.00
2019-05-12T06:12:50.945Z,843.75
2019-05-12T06:13:49.385Z,658.13
2019-05-12T06:14:55.207Z,540.00
2019-05-12T06:15:49.418Z,511.88
2019-05-12T06:16:49.435Z,517.50
2019-05-12T06:17:49.453Z,562.50
2019-05-12T06:18:49.470Z,585.00
2019-05-12T06:19:49.482Z,472.50
2019-05-12T06:20:49.509Z,466.88
2019-05-12T06:21:49.525Z,489.38
2019-05-12T06:22:54.570Z,489.38
2019-05-12T06:23:49.558Z,466.88
2019-05-12T06:24:54.859Z,444.38
2019-05-12T06:25:51.609Z,455.63
2019-05-12T06:26:57.657Z,421.88
2019-05-12T06:27:51.130Z,495.00
2019-05-12T06:28:49.656Z,450.00
2019-05-12T06:29:54.447Z,427.50
2019-05-12T06:30:50.356Z,511.88
2019-05-12T06:31:49.717Z,523.13
2019-05-12T06:32:51.804Z,517.50
2019-05-12T06:33:49.746Z,562.50
2019-05-12T06:34:50.833Z,601.88
2019-05-12T06:35:49.784Z,556.88
2019-05-12T06:36:49.796Z,590.63
2019-05-12T06:37:57.762Z,568.13
2019-05-12T06:38:49.851Z,607.50
2019-05-12T06:39:51.021Z,618.75
2019-05-12T06:40:49.892Z,641.25
2019-05-12T06:41:49.877Z,551.25
2019-05-12T06:42:53.971Z,511.88
2019-05-12T06:43:49.945Z,489.38
2019-05-12T06:44:54.893Z,360.00
2019-05-12T06:45:49.967Z,371.25
2019-05-12T06:46:53.574Z,450.00
2019-05-12T06:47:51.733Z,489.38
2019-05-12T06:48:50.022Z,461.25
2019-05-12T06:49:56.458Z,427.50
2019-05-12T06:50:50.065Z,444.38
2019-05-12T06:51:53.783Z,472.50
2019-05-12T06:52:50.076Z,489.38
2019-05-12T06:53:50.091Z,478.13
2019-05-12T06:54:56.425Z,528.75
2019-05-12T06:55:50.125Z,641.25
2019-05-12T06:56:55.291Z,590.63
2019-05-12T06:57:50.406Z,517.50
2019-05-12T06:58:50.182Z,483.75
2019-05-12T06:59:51.425Z,466.88
2019-05-12T07:00:50.224Z,517.50
2019-05-12T07:01:54.966Z,517.50
2019-05-12T07:02:54.739Z,646.88
2019-05-12T07:03:50.271Z,506.25
2019-05-12T07:04:56.616Z,427.50
2019-05-12T07:05:50.303Z,495.00
2019-05-12T07:06:56.160Z,585.00
2019-05-12T07:07:50.340Z,601.88
2019-05-12T07:09:02.285Z,534.38
2019-05-12T07:09:53.747Z,523.13
2019-05-12T07:10:59.782Z,545.63
2019-05-12T07:12:01.765Z,590.63
2019-05-12T07:12:58.825Z,466.88
2019-05-12T07:14:01.292Z,545.63
2019-05-12T07:14:55.626Z,461.25
2019-05-12T07:15:50.485Z,433.13
2019-05-12T07:16:55.055Z,455.63
2019-05-12T07:17:50.519Z,511.88
2019-05-12T07:18:50.542Z,545.63
2019-05-12T07:19:56.354Z,534.38
2019-05-12T07:20:50.584Z,534.38
2019-05-12T07:21:55.405Z,568.13
2019-05-12T07:22:50.613Z,545.63
2019-05-12T07:23:50.629Z,545.63
2019-05-12T07:24:52.803Z,675.00
2019-05-12T07:25:50.660Z,528.75
2019-05-12T07:26:56.320Z,568.13
2019-05-12T07:27:54.905Z,579.38
2019-05-12T07:28:50.742Z,635.63
2019-05-12T07:29:50.742Z,596.25
2019-05-12T07:30:50.753Z,483.75
2019-05-12T07:31:50.780Z,438.75
2019-05-12T07:32:51.233Z,427.50
2019-05-12T07:33:54.006Z,438.75
2019-05-12T07:34:50.831Z,393.75
2019-05-12T07:35:53.465Z,343.13
2019-05-12T07:36:50.873Z,360.00
2019-05-12T07:37:50.891Z,405.00
2019-05-12T07:38:55.853Z,416.25
2019-05-12T07:39:50.927Z,450.00
2019-05-12T07:40:51.027Z,506.25
2019-05-12T07:41:52.164Z,551.25
2019-05-12T07:42:50.999Z,556.88
2019-05-12T07:43:56.693Z,528.75
2019-05-12T07:44:51.021Z,568.13
2019-05-12T07:45:53.938Z,675.00
2019-05-12T07:46:51.068Z,607.50
2019-05-12T07:47:51.075Z,652.50
2019-05-12T07:48:51.105Z,641.25
2019-05-12T07:49:53.610Z,601.88
2019-05-12T07:50:56.458Z,455.63
2019-05-12T07:51:51.215Z,438.75
2019-05-12T07:52:51.223Z,427.50
2019-05-12T07:53:55.390Z,551.25
2019-05-12T07:54:53.713Z,534.38
2019-05-12T07:55:53.180Z,506.25
2019-05-12T07:56:53.805Z,500.63
2019-05-12T07:57:57.896Z,511.88
2019-05-12T07:58:56.496Z,534.38
2019-05-12T07:59:51.300Z,551.25
2019-05-12T08:00:53.944Z,556.88
2019-05-12T08:01:54.332Z,551.25
2019-05-12T08:02:53.557Z,568.13
2019-05-12T08:03:57.329Z,590.63
2019-05-12T08:04:51.399Z,573.75
2019-05-12T08:05:56.343Z,506.25
2019-05-12T08:06:53.688Z,511.88
2019-05-12T08:07:53.452Z,618.75
2019-05-12T08:08:58.147Z,624.38
2019-05-12T08:09:53.545Z,545.63
2019-05-12T08:10:55.661Z,511.88
2019-05-12T08:11:53.909Z,489.38
2019-05-12T08:12:59.566Z,421.88
2019-05-12T08:13:54.103Z,478.13
2019-05-12T08:14:51.604Z,466.88
2019-05-12T08:15:55.604Z,478.13
2019-05-12T08:16:54.112Z,506.25
2019-05-12T08:17:55.306Z,545.63
2019-05-12T08:18:53.491Z,573.75
2019-05-12T08:19:53.618Z,545.63
2019-05-12T08:20:53.779Z,489.38
2019-05-12T08:21:53.613Z,545.63
2019-05-12T08:22:54.014Z,562.50
2019-05-12T08:23:53.450Z,466.88
2019-05-12T08:24:53.776Z,450.00
2019-05-12T08:25:53.838Z,472.50
2019-05-12T08:26:59.706Z,500.63
2019-05-12T08:27:59.380Z,506.25
2019-05-12T08:28:53.541Z,478.13
2019-05-12T08:30:00.834Z,472.50
2019-05-12T08:30:52.708Z,466.88
2019-05-12T08:31:54.617Z,506.25
2019-05-12T08:32:56.344Z,534.38
2019-05-12T08:33:53.787Z,534.38
2019-05-12T08:34:54.134Z,483.75
2019-05-12T08:35:52.020Z,455.63
2019-05-12T08:36:56.725Z,365.63
2019-05-12T08:37:54.332Z,348.75
2019-05-12T08:38:53.634Z,320.63
2019-05-12T08:40:02.174Z,360.00
2019-05-12T08:40:54.205Z,376.88
2019-05-12T08:41:53.483Z,388.13
2019-05-12T08:42:53.993Z,405.00
2019-05-12T08:43:57.884Z,427.50
2019-05-12T08:44:54.117Z,483.75
2019-05-12T08:45:53.596Z,540.00
2019-05-12T08:46:56.358Z,562.50
2019-05-12T08:47:54.154Z,556.88
2019-05-12T08:48:57.840Z,534.38
2019-05-12T08:49:58.292Z,556.88
2019-05-12T08:50:54.532Z,585.00
2019-05-12T08:51:55.754Z,545.63
2019-05-12T08:52:53.838Z,455.63
2019-05-12T08:53:53.921Z,450.00
2019-05-12T08:54:53.658Z,444.38
2019-05-12T08:55:53.843Z,450.00
2019-05-12T08:56:59.355Z,478.13
2019-05-12T08:57:54.192Z,511.88
2019-05-12T08:58:54.358Z,568.13
2019-05-12T08:59:54.596Z,596.25
2019-05-12T09:00:54.747Z,585.00
2019-05-12T09:01:54.018Z,573.75
2019-05-12T09:02:53.930Z,500.63
2019-05-12T09:03:53.349Z,534.38
2019-05-12T09:04:55.559Z,511.88
2019-05-12T09:05:53.688Z,500.63
2019-05-12T09:06:56.383Z,495.00
2019-05-12T09:07:54.072Z,489.38
2019-05-12T09:08:54.229Z,450.00
2019-05-12T09:09:53.343Z,410.63
2019-05-12T09:10:55.348Z,399.38
2019-05-12T09:11:54.213Z,393.75
2019-05-12T09:12:54.156Z,399.38
2019-05-12T09:14:00.196Z,399.38
2019-05-12T09:14:54.569Z,399.38
2019-05-12T09:15:54.139Z,393.75
2019-05-12T09:16:53.712Z,405.00
2019-05-12T09:17:56.878Z,427.50
2019-05-12T09:18:55.142Z,472.50
2019-05-12T09:19:54.986Z,500.63
2019-05-12T09:20:55.503Z,483.75
2019-05-12T09:21:54.217Z,495.00
2019-05-12T09:23:00.663Z,517.50
2019-05-12T09:23:55.854Z,506.25
2019-05-12T09:24:53.413Z,483.75
2019-05-12T09:25:53.721Z,517.50
2019-05-12T09:26:53.842Z,500.63
2019-05-12T09:27:54.241Z,410.63
2019-05-12T09:28:54.306Z,461.25
2019-05-12T09:29:53.995Z,455.63
2019-05-12T09:30:54.354Z,455.63
2019-05-12T09:31:53.222Z,444.38
2019-05-12T09:32:55.984Z,450.00
2019-05-12T09:33:54.708Z,472.50
2019-05-12T09:34:58.111Z,495.00
2019-05-12T09:35:54.043Z,511.88
2019-05-12T09:36:59.610Z,523.13
2019-05-12T09:37:53.594Z,540.00
2019-05-12T09:39:01.299Z,551.25
2019-05-12T09:39:53.846Z,551.25
2019-05-12T09:41:00.733Z,534.38
2019-05-12T09:41:55.292Z,511.88
2019-05-12T09:42:53.356Z,517.50
2019-05-12T09:43:53.507Z,466.88
2019-05-12T09:44:53.956Z,489.38
2019-05-12T09:45:56.474Z,483.75
2019-05-12T09:46:53.536Z,500.63
2019-05-12T09:47:53.990Z,444.38
2019-05-12T09:48:55.093Z,421.88
2019-05-12T09:49:53.620Z,455.63
2019-05-12T09:51:00.365Z,455.63
2019-05-12T09:51:54.385Z,506.25
2019-05-12T09:52:55.531Z,551.25
2019-05-12T09:53:55.501Z,523.13
2019-05-12T09:54:53.537Z,528.75
2019-05-12T09:55:53.904Z,523.13
2019-05-12T09:56:55.422Z,506.25
2019-05-12T09:57:54.394Z,461.25
2019-05-12T09:59:01.480Z,450.00
2019-05-12T09:59:58.262Z,444.38
2019-05-12T10:00:54.350Z,438.75
2019-05-12T10:01:54.184Z,438.75
2019-05-12T10:02:59.381Z,433.13
2019-05-12T10:03:54.427Z,444.38
2019-05-12T10:04:56.349Z,455.63
2019-05-12T10:05:53.666Z,461.25
2019-05-12T10:06:53.672Z,517.50
2019-05-12T10:07:53.706Z,489.38
2019-05-12T10:08:54.884Z,540.00
2019-05-12T10:09:55.032Z,551.25
2019-05-12T10:10:53.779Z,556.88
2019-05-12T10:12:00.309Z,556.88
2019-05-12T10:12:53.808Z,545.63
2019-05-12T10:13:54.352Z,528.75
2019-05-12T10:14:53.897Z,495.00
2019-05-12T10:15:58.683Z,416.25
2019-05-12T10:16:53.866Z,410.63
2019-05-12T10:17:54.058Z,405.00
2019-05-12T10:18:53.929Z,388.13
2019-05-12T10:19:57.864Z,382.50
2019-05-12T10:20:53.961Z,427.50
2019-05-12T10:21:55.183Z,410.63
2019-05-12T10:22:54.292Z,382.50
2019-05-12T10:24:00.647Z,371.25
2019-05-12T10:24:57.877Z,360.00
2019-05-12T10:25:54.028Z,360.00
2019-05-12T10:26:54.277Z,371.25
2019-05-12T10:27:54.091Z,376.88
2019-05-12T10:28:58.198Z,388.13
2019-05-12T10:29:54.272Z,405.00
2019-05-12T10:30:56.933Z,433.13
2019-05-12T10:31:54.143Z,455.63
2019-05-12T10:32:54.182Z,472.50
2019-05-12T10:33:57.158Z,500.63
2019-05-12T10:34:54.192Z,500.63
2019-05-12T10:35:54.293Z,466.88
2019-05-12T10:36:54.257Z,483.75
2019-05-12T10:37:54.255Z,427.50
2019-05-12T10:38:54.284Z,438.75
2019-05-12T10:39:54.291Z,495.00
2019-05-12T10:40:54.304Z,433.13
2019-05-12T10:41:54.815Z,450.00
2019-05-12T10:42:54.365Z,495.00
2019-05-12T10:43:57.807Z,506.25
2019-05-12T10:44:56.565Z,466.88
2019-05-12T10:45:54.438Z,421.88
2019-05-12T10:46:54.411Z,388.13
2019-05-12T10:47:54.458Z,365.63
2019-05-12T10:48:54.454Z,360.00
2019-05-12T10:49:54.485Z,365.63
2019-05-12T10:50:54.491Z,376.88
2019-05-12T10:51:54.511Z,393.75
2019-05-12T10:52:54.537Z,405.00
2019-05-12T10:53:57.404Z,405.00
2019-05-12T10:54:54.587Z,371.25
2019-05-12T10:55:54.596Z,388.13
2019-05-12T10:56:54.858Z,427.50
2019-05-12T10:58:01.586Z,495.00
2019-05-12T10:58:54.673Z,478.13
2019-05-12T10:59:54.661Z,489.38
2019-05-12T11:00:58.812Z,562.50
2019-05-12T11:01:54.691Z,495.00
2019-05-12T11:02:54.716Z,478.13
2019-05-12T11:03:54.757Z,483.75
2019-05-12T11:04:54.750Z,489.38
2019-05-12T11:06:02.332Z,556.88
2019-05-12T11:06:54.785Z,472.50
2019-05-12T11:07:54.834Z,450.00
2019-05-12T11:08:54.827Z,433.13
2019-05-12T11:09:54.842Z,421.88
2019-05-12T11:10:57.680Z,405.00
2019-05-12T11:11:54.895Z,450.00
2019-05-12T11:12:59.212Z,399.38
2019-05-12T11:13:54.972Z,343.13
2019-05-12T11:14:54.935Z,410.63
2019-05-12T11:15:54.950Z,399.38
2019-05-12T11:16:54.972Z,399.38
2019-05-12T11:17:54.993Z,399.38
2019-05-12T11:18:55.013Z,393.75
2019-05-12T11:19:55.030Z,427.50
2019-05-12T11:20:55.046Z,433.13
2019-05-12T11:21:55.085Z,461.25
2019-05-12T11:22:55.107Z,461.25
2019-05-12T11:23:55.100Z,455.63
2019-05-12T11:24:55.872Z,511.88
2019-05-12T11:25:55.168Z,444.38
2019-05-12T11:26:55.160Z,427.50
2019-05-12T11:27:55.174Z,405.00
2019-05-12T11:28:55.192Z,399.38
2019-05-12T11:29:55.235Z,410.63
2019-05-12T11:30:55.230Z,421.88
2019-05-12T11:31:55.250Z,427.50
2019-05-12T11:32:55.264Z,433.13
2019-05-12T11:33:55.284Z,433.13
2019-05-12T11:34:55.315Z,427.50
2019-05-12T11:35:55.324Z,416.25
2019-05-12T11:36:55.336Z,405.00
2019-05-12T11:37:55.365Z,393.75
2019-05-12T11:38:55.383Z,388.13
2019-05-12T11:39:55.394Z,416.25
2019-05-12T11:40:55.419Z,433.13
2019-05-12T11:41:55.533Z,410.63
2019-05-12T11:42:59.837Z,405.00
2019-05-12T11:43:55.498Z,405.00
2019-05-12T11:44:55.486Z,405.00
2019-05-12T11:45:55.510Z,410.63
2019-05-12T11:46:55.522Z,427.50
2019-05-12T11:47:59.122Z,455.63
2019-05-12T11:48:55.563Z,483.75
2019-05-12T11:49:58.541Z,511.88
2019-05-12T11:50:55.635Z,528.75
2019-05-12T11:51:55.647Z,540.00
2019-05-12T11:52:55.643Z,562.50
2019-05-12T11:53:55.654Z,579.38
2019-05-12T11:54:55.728Z,573.75
2019-05-12T11:55:55.747Z,568.13
2019-05-12T11:56:55.745Z,511.88
2019-05-12T11:58:00.459Z,495.00
2019-05-12T11:58:55.758Z,523.13
2019-05-12T12:00:02.011Z,433.13
2019-05-12T12:00:58.650Z,421.88
2019-05-12T12:01:56.167Z,450.00
2019-05-12T12:02:55.833Z,360.00
2019-05-12T12:03:55.849Z,298.13
2019-05-12T12:04:55.858Z,348.75
2019-05-12T12:05:55.932Z,292.50
2019-05-12T12:06:55.926Z,270.00
2019-05-12T12:07:56.194Z,275.63
2019-05-12T12:08:55.946Z,343.13
2019-05-12T12:09:59.484Z,393.75
2019-05-12T12:10:56.005Z,410.63
2019-05-12T12:12:02.476Z,427.50
2019-05-12T12:12:56.014Z,466.88
2019-05-12T12:14:00.415Z,500.63
2019-05-12T12:14:56.050Z,517.50
2019-05-12T12:16:00.385Z,528.75
2019-05-12T12:16:56.091Z,461.25
2019-05-12T12:17:56.143Z,421.88
2019-05-12T12:19:02.254Z,388.13
2019-05-12T12:19:56.174Z,382.50
2019-05-12T12:21:02.978Z,371.25
2019-05-12T12:21:56.192Z,354.38
2019-05-12T12:23:00.113Z,331.88
2019-05-12T12:23:56.226Z,388.13
2019-05-12T12:24:56.240Z,382.50
2019-05-12T12:25:56.283Z,360.00
2019-05-12T12:26:56.275Z,388.13
2019-05-12T12:27:56.296Z,393.75
2019-05-12T12:28:56.324Z,405.00
2019-05-12T12:29:56.358Z,405.00
2019-05-12T12:31:00.377Z,421.88
2019-05-12T12:31:56.397Z,438.75
2019-05-12T12:33:00.273Z,438.75
2019-05-12T12:33:56.408Z,444.38
2019-05-12T12:34:56.440Z,438.75
2019-05-12T12:36:00.567Z,433.13
2019-05-12T12:36:56.476Z,376.88
2019-05-12T12:37:56.497Z,376.88
2019-05-12T12:38:56.507Z,360.00
2019-05-12T12:39:56.554Z,360.00
2019-05-12T12:40:56.537Z,360.00
2019-05-12T12:42:00.403Z,360.00
2019-05-12T12:42:56.594Z,365.63